CRW weather

Yeager Airport
Charleston, West Virginia, United States

Public forecast

Using degrees Fahrenheit for public forecast. Weather courtesy of forecast.io.

Current aviation weather report (METAR) for Yeager Airport

Retrieved 2020/07/10 11:54 UTC (39 minutes ago):

KCRW 101154Z 00000KT 10SM CLR 24/21 A2992 RMK AO2 SLP120 T02390206 10239 20211 51003

Aviation forecast (TAF) for Yeager Airport

Retrieved 2020/07/10 12:34 UTC (0 seconds ago):

TAF KCRW 101132Z 1012/1112 00000KT P6SM SCT040 FM101800 22008KT P6SM VCTS SCT050CB FM102300 23007KT P6SM SHRA VCTS BKN040CB PROB30 1023/1102 VRB15G30KT 3SM +TSRA FM110300 24010KT P6SM BKN035